UGSB/BUS METAR and TAF weather

Enter ICAO airport designator
Station Type Date Time Source
UGSB METAR 2022/12/10 03:00 UTC NOAA

UGSB 100300Z 13019KT CAVOK 11/04 Q1020 NOSIG


Station Type Date Time Source
UGSB Decoded METAR 2022/12/10 03:00 UTC NOAA

Station name not available
Dec 09, 2022 - 10:00 PM EST / 2022.12.10 0300 UTC
Wind: from the SE (130 degrees) at 22 MPH (19 KT):0
Visibility: greater than 7 mile(s):0
Temperature: 51 F (11 C)
Dew Point: 39 F (4 C)
Relative Humidity: 61%
Pressure (altimeter): 30.12 in. Hg (1020 hPa)
ob: UGSB 100300Z 13019KT CAVOK 11/04 Q1020 NOSIG
cycle: 3

Station Type Date Time Source
UGSB TAF 2022/12/09 18:05 UTC NOAA

TAF UGSB 091700Z 0918/1018 13017KT 9999 BKN100 TX18/1011Z TN11/1003Z
TEMPO 0920/1006 13027KT
BECMG 1009/1011 13007KT

Example: see airport list